Fontana, California
Current Conditions -  °F | °C
As of 2:53 PM on Tuesday 25 Nov 2014 (Local Time) from KONT Reporting Station
Clear Clear  
Wind Chill: 78°   Ceiling: Unl
Heat Index: 78°   Visibility: 10mi
Dew Point:   Wind: 5mph
Humidity: 7%   Direction: 240°WSW
Pressure: 30.27"   Gusts: NA
Location:  34.1°N, 117.43°W
Report Text: KONT 252253Z 24004KT 10SM CLR 26/M13 A3027 RMK AO2 SLP244 T02561133
Loading
Personal Weather Stations






























Interactive Weather Map New forecast layout! Learn more

10-Day Weather Forecast

Advertisements
Track Severe Weather on mobile